Time;durP1;ratioP1;P1;durP2;ratioP2;P2;SDS_P1;SDS_P2;PMS_P1;PMS_P2;Temp;Humidity;BMP_temperature;BMP_pressure;BME280_temperature;BME280_humidity;BME280_pressure;Samples;Min_cycle;Max_cycle;Signal;HPM_P1;HPM_P2
2023/02/02 00:01:49;;;;;;;8.30;3.30;;;;;;;2.45;100.00;98113.29;269216;1272;23332;-90
2023/02/02 00:07:51;;;;;;;9.10;3.40;;;;;;;2.42;100.00;98120.69;269479;1272;22579;-89
2023/02/02 00:13:53;;;;;;;11.10;4.10;;;;;;;2.31;100.00;98118.13;270914;1272;22423;-90
2023/02/02 00:19:55;;;;;;;8.60;3.60;;;;;;;2.18;100.00;98128.92;272988;1272;23057;-89
2023/02/02 00:25:57;;;;;;;9.10;3.40;;;;;;;2.01;100.00;98146.15;272963;1271;22336;-90
2023/02/02 00:31:59;;;;;;;9.50;2.50;;;;;;;1.84;100.00;98152.02;269736;1271;22547;-88
2023/02/02 00:38:00;;;;;;;7.10;2.70;;;;;;;1.68;100.00;98156.35;270765;1271;22322;-89
2023/02/02 00:50:23;;;;;;;6.60;3.80;;;;;;;1.41;100.00;98167.63;272013;1272;23289;-90
2023/02/02 00:56:24;;;;;;;7.90;3.00;;;;;;;1.26;100.00;98167.45;269490;1272;23374;-89
2023/02/02 01:02:28;;;;;;;8.00;3.50;;;;;;;1.07;100.00;98166.47;272939;1256;22345;-88
2023/02/02 01:08:29;;;;;;;6.50;2.90;;;;;;;0.90;100.00;98167.89;272877;1272;22272;-90
2023/02/02 01:14:32;;;;;;;7.80;3.20;;;;;;;0.79;100.00;98162.79;270401;1272;22575;-89
2023/02/02 01:20:33;;;;;;;4.50;2.60;;;;;;;0.69;100.00;98163.73;271596;1272;22294;-90
2023/02/02 01:26:35;;;;;;;7.70;3.30;;;;;;;0.60;100.00;98164.73;271843;1272;22534;-88
2023/02/02 01:32:37;;;;;;;7.50;3.20;;;;;;;0.58;100.00;98170.51;268987;1272;22639;-88
2023/02/02 01:38:39;;;;;;;10.20;3.40;;;;;;;0.58;100.00;98174.66;268821;1272;22581;-89
2023/02/02 01:45:15;;;;;;;4.70;2.90;;;;;;;0.58;100.00;98178.95;268668;1272;22546;-91
2023/02/02 01:51:20;;;;;;;6.00;2.80;;;;;;;0.60;100.00;98178.80;268924;1272;27433;-88
2023/02/02 01:57:27;;;;;;;9.10;2.80;;;;;;;0.63;100.00;98184.39;269285;1272;23469;-88
2023/02/02 02:03:30;;;;;;;;;;;;;;;0.66;100.00;98187.12;268912;1272;22541;-88
2023/02/02 02:09:33;;;;;;;4.70;2.70;;;;;;;0.67;100.00;98196.20;269730;1261;22531;-89
2023/02/02 02:28:58;;;;;;;6.00;2.90;;;;;;;0.62;100.00;98218.80;269213;1265;25275;-88
2023/02/02 02:35:04;;;;;;;5.80;3.20;;;;;;;0.64;100.00;98223.35;269904;1272;22232;-89
2023/02/02 02:41:10;;;;;;;8.00;3.40;;;;;;;0.68;100.00;98225.50;272829;1272;22338;-89
2023/02/02 02:47:13;;;;;;;7.10;4.00;;;;;;;0.75;100.00;98232.52;272950;1272;23162;-90
2023/02/02 02:53:19;;;;;;;10.00;4.80;;;;;;;0.83;100.00;98236.30;272966;1272;22206;-89
2023/02/02 02:59:30;;;;;;;10.40;5.50;;;;;;;0.88;100.00;98243.95;272887;1272;22232;-89
2023/02/02 03:05:36;;;;;;;11.00;6.00;;;;;;;0.93;100.00;98253.62;272882;1272;23802;-89
2023/02/02 03:11:38;;;;;;;;;;;;;;;0.98;100.00;98257.46;272611;1272;22424;-88
2023/02/02 03:17:41;;;;;;;9.40;4.80;;;;;;;1.02;100.00;98262.48;272763;1272;23755;-88
2023/02/02 03:23:43;;;;;;;14.20;5.20;;;;;;;1.06;100.00;98270.56;272806;1272;22347;-89
2023/02/02 03:29:45;;;;;;;11.70;4.90;;;;;;;1.10;100.00;98273.95;272755;1272;23654;-89
2023/02/02 03:35:47;;;;;;;9.40;3.80;;;;;;;1.13;100.00;98273.98;272843;1272;22206;-88
2023/02/02 03:41:48;;;;;;;11.90;4.30;;;;;;;1.16;100.00;98284.16;270559;1272;23015;-90
2023/02/02 03:47:50;;;;;;;13.70;4.10;;;;;;;1.16;100.00;98282.59;269701;1272;22320;-89
2023/02/02 03:53:52;;;;;;;16.20;4.30;;;;;;;1.16;100.00;98277.92;269650;1271;22574;-88
2023/02/02 03:59:54;;;;;;;15.30;4.20;;;;;;;1.18;100.00;98272.48;268591;1262;23775;-90
2023/02/02 04:05:55;;;;;;;18.50;4.80;;;;;;;1.22;100.00;98272.00;271895;1272;22216;-90
2023/02/02 04:11:58;;;;;;;12.80;5.30;;;;;;;1.24;100.00;98275.31;271019;1272;22536;-90
2023/02/02 04:18:00;;;;;;;11.50;4.60;;;;;;;1.25;100.00;98278.89;270474;1272;23163;-90
2023/02/02 04:24:02;;;;;;;21.40;4.00;;;;;;;1.27;100.00;98281.19;271103;1272;22573;-89
2023/02/02 04:30:04;;;;;;;14.90;4.80;;;;;;;1.28;100.00;98279.09;271662;1272;22350;-90
2023/02/02 04:36:09;;;;;;;17.10;5.10;;;;;;;1.29;100.00;98279.17;272543;1272;23603;-89
2023/02/02 04:42:11;;;;;;;24.20;6.30;;;;;;;1.31;100.00;98278.96;271579;1272;22541;-90
2023/02/02 04:48:13;;;;;;;17.30;5.40;;;;;;;1.33;100.00;98270.95;269996;1271;22202;-90
2023/02/02 04:54:15;;;;;;;18.00;4.90;;;;;;;1.35;100.00;98275.71;270005;1261;23292;-90
2023/02/02 05:00:17;;;;;;;18.40;4.90;;;;;;;1.37;100.00;98276.84;269602;1272;23552;-90
2023/02/02 05:06:19;;;;;;;15.80;3.50;;;;;;;1.38;100.00;98272.95;270095;1272;23075;-91
2023/02/02 05:12:21;;;;;;;15.10;5.00;;;;;;;1.41;100.00;98272.35;270000;1272;22335;-91
2023/02/02 05:18:24;;;;;;;15.30;5.30;;;;;;;1.43;100.00;98275.97;269577;1271;24344;-88
2023/02/02 05:24:26;;;;;;;17.30;7.10;;;;;;;1.42;100.00;98273.55;269411;1272;24069;-91
2023/02/02 05:30:28;;;;;;;16.40;6.20;;;;;;;1.45;100.00;98272.96;268907;1272;22533;-91
2023/02/02 05:36:30;;;;;;;9.20;4.50;;;;;;;1.46;100.00;98272.31;269036;1262;22560;-91
2023/02/02 05:42:32;;;;;;;11.60;3.50;;;;;;;1.46;100.00;98272.16;269862;1272;22534;-91
2023/02/02 05:48:34;;;;;;;6.00;2.90;;;;;;;1.48;100.00;98273.91;269930;1272;22552;-90
2023/02/02 05:54:36;;;;;;;10.70;4.50;;;;;;;1.50;100.00;98282.01;269136;1272;22528;-90
2023/02/02 06:00:38;;;;;;;13.20;5.50;;;;;;;1.53;100.00;98279.55;268934;1272;22537;-91
2023/02/02 06:06:41;;;;;;;11.90;4.00;;;;;;;1.56;100.00;98279.66;269320;1272;22564;-90
2023/02/02 06:12:43;;;;;;;9.30;3.20;;;;;;;1.61;100.00;98274.43;270407;1272;22613;-90
2023/02/02 06:18:45;;;;;;;9.00;2.50;;;;;;;1.69;100.00;98262.52;271740;1272;22196;-89
2023/02/02 06:24:47;;;;;;;10.30;2.20;;;;;;;1.79;100.00;98258.63;272760;1262;22348;-90
2023/02/02 06:30:49;;;;;;;5.40;1.70;;;;;;;1.89;100.00;98260.28;272951;1262;22722;-91
2023/02/02 06:36:51;;;;;;;9.80;1.70;;;;;;;2.00;100.00;98265.42;271928;1272;22376;-91
2023/02/02 06:43:00;;;;;;;8.50;3.10;;;;;;;2.05;100.00;98268.14;269808;1272;22560;-91
2023/02/02 06:49:02;;;;;;;10.90;3.10;;;;;;;2.09;100.00;98260.87;269463;1272;22553;-89
2023/02/02 06:55:03;;;;;;;10.70;3.40;;;;;;;2.14;100.00;98264.42;270311;1272;22548;-89
2023/02/02 07:01:11;;;;;;;8.00;2.10;;;;;;;2.18;100.00;98257.29;270556;1272;22533;-91
2023/02/02 07:07:13;;;;;;;12.50;2.50;;;;;;;2.21;100.00;98256.34;270172;1272;22595;-90
2023/02/02 07:13:14;;;;;;;19.10;4.40;;;;;;;2.23;100.00;98251.52;270111;1272;22530;-91
2023/02/02 07:19:17;;;;;;;11.30;3.00;;;;;;;2.25;100.00;98260.44;270633;1272;22704;-90
2023/02/02 07:25:19;;;;;;;10.40;2.80;;;;;;;2.25;100.00;98268.71;271698;1272;22562;-90
2023/02/02 07:31:23;;;;;;;8.20;2.50;;;;;;;2.26;100.00;98272.14;271637;1272;22300;-90
2023/02/02 07:37:25;;;;;;;7.70;2.70;;;;;;;2.26;100.00;98286.25;272065;1272;23519;-89
2023/02/02 07:43:27;;;;;;;12.70;3.00;;;;;;;2.24;100.00;98284.17;272838;1272;22316;-88
2023/02/02 07:49:29;;;;;;;11.30;2.70;;;;;;;2.21;100.00;98292.52;272972;1260;22478;-89
2023/02/02 07:55:31;;;;;;;9.10;2.50;;;;;;;2.13;100.00;98287.22;272843;1272;22195;-90
2023/02/02 08:01:33;;;;;;;6.00;2.50;;;;;;;2.05;100.00;98278.48;272954;1272;22199;-90
2023/02/02 08:07:36;;;;;;;7.50;2.90;;;;;;;2.01;100.00;98271.09;271144;1272;26524;-89
2023/02/02 08:13:38;;;;;;;9.20;2.80;;;;;;;1.98;100.00;98266.15;270154;1272;331079;-90
2023/02/02 08:19:40;;;;;;;12.60;3.20;;;;;;;1.97;100.00;98263.62;270486;1272;22320;-90
2023/02/02 08:25:43;;;;;;;7.10;2.90;;;;;;;1.94;100.00;98258.54;269687;1271;25438;-90
2023/02/02 08:31:45;;;;;;;9.90;2.80;;;;;;;1.87;100.00;98248.12;269669;1272;23240;-90
2023/02/02 08:38:04;;;;;;;12.30;3.30;;;;;;;1.84;100.00;98253.17;271237;1272;22813;-91
2023/02/02 08:44:08;;;;;;;11.90;3.20;;;;;;;1.87;100.00;98254.20;272211;1272;23057;-91
2023/02/02 08:50:10;;;;;;;8.20;3.10;;;;;;;1.93;100.00;98250.55;272414;1272;23446;-88
2023/02/02 08:56:14;;;;;;;11.30;4.40;;;;;;;1.96;100.00;98247.11;271868;1272;23141;-90
2023/02/02 09:02:17;;;;;;;13.90;2.80;;;;;;;2.01;100.00;98242.26;270338;1272;22733;-89
2023/02/02 09:08:19;;;;;;;8.80;3.30;;;;;;;2.07;100.00;98245.20;270281;1272;22202;-91
2023/02/02 09:14:21;;;;;;;6.90;2.70;;;;;;;2.06;100.00;98238.02;271340;1272;22565;-90
2023/02/02 09:20:30;;;;;;;13.30;3.90;;;;;;;2.06;100.00;98243.55;270956;1272;23361;-89
2023/02/02 09:26:33;;;;;;;7.80;3.10;;;;;;;2.13;100.00;98243.87;271188;1272;23472;-88
2023/02/02 09:32:35;;;;;;;7.80;2.90;;;;;;;2.24;100.00;98239.52;272781;1272;22485;-92
2023/02/02 09:38:38;;;;;;;14.00;4.00;;;;;;;2.29;100.00;98254.88;272324;1272;22410;-91
2023/02/02 09:44:45;;;;;;;12.30;3.90;;;;;;;2.35;100.00;98257.83;272549;1272;23090;-90
2023/02/02 09:50:52;;;;;;;17.30;5.70;;;;;;;2.34;100.00;98270.70;272339;1272;22545;-88
2023/02/02 09:56:56;;;;;;;9.30;4.20;;;;;;;2.31;100.00;98281.33;269296;1272;23709;-89
2023/02/02 10:03:01;;;;;;;14.20;5.30;;;;;;;2.22;100.00;98297.10;269584;1272;22392;-89
2023/02/02 10:09:29;;;;;;;15.90;5.80;;;;;;;2.09;100.00;98308.92;269084;1272;23699;-91
2023/02/02 10:15:32;;;;;;;14.60;5.80;;;;;;;1.96;100.00;98312.64;270111;1272;22933;-90
2023/02/02 10:22:03;;;;;;;14.50;4.40;;;;;;;1.79;100.00;98310.30;270018;1272;25519;-89
2023/02/02 10:28:14;;;;;;;9.40;5.00;;;;;;;1.65;100.00;98311.75;270320;1272;22537;-91
2023/02/02 10:34:30;;;;;;;19.70;6.30;;;;;;;1.56;100.00;98319.83;271009;1272;22177;-89
2023/02/02 10:40:48;;;;;;;18.00;5.80;;;;;;;1.50;100.00;98322.70;272012;1271;22994;-88
2023/02/02 10:46:52;;;;;;;10.30;4.90;;;;;;;1.52;100.00;98325.92;271175;1272;22605;-89
2023/02/02 10:52:59;;;;;;;9.60;4.30;;;;;;;1.53;100.00;98342.21;272717;1272;22310;-90
2023/02/02 10:59:19;;;;;;;15.50;5.50;;;;;;;1.43;100.00;98344.63;272266;1272;22553;-89
2023/02/02 11:11:54;;;;;;;15.30;6.50;;;;;;;1.48;100.00;98351.05;271200;1272;22358;-89
2023/02/02 11:18:13;;;;;;;17.60;6.20;;;;;;;1.61;100.00;98355.69;272410;1272;22378;-88
2023/02/02 11:24:24;;;;;;;19.30;6.60;;;;;;;1.71;100.00;98354.04;272418;1272;22465;-91
2023/02/02 11:30:33;;;;;;;15.90;6.70;;;;;;;1.83;100.00;98363.86;272700;1272;22312;-89
2023/02/02 11:36:35;;;;;;;17.60;8.40;;;;;;;1.99;100.00;98367.98;272875;1272;22442;-90
2023/02/02 11:42:36;;;;;;;16.20;7.20;;;;;;;2.13;100.00;98368.59;271489;1272;22549;-90
2023/02/02 11:48:57;;;;;;;14.70;6.80;;;;;;;2.25;100.00;98372.94;272086;1273;22203;-89
2023/02/02 11:55:01;;;;;;;17.20;8.20;;;;;;;2.39;100.00;98377.95;272202;1272;22181;-90
2023/02/02 12:01:03;;;;;;;14.30;7.60;;;;;;;2.54;100.00;98383.10;272424;1272;22639;-89
2023/02/02 12:07:20;;;;;;;11.40;5.40;;;;;;;2.66;100.00;98385.97;272449;1272;22248;-89
2023/02/02 12:13:36;;;;;;;10.30;4.60;;;;;;;2.78;100.00;98392.08;271294;1272;23032;-90
2023/02/02 12:20:01;;;;;;;7.70;4.10;;;;;;;2.86;100.00;98403.61;271428;1272;24336;-90
2023/02/02 12:26:31;;;;;;;7.40;3.20;;;;;;;2.85;100.00;98411.89;271697;1272;22443;-91
2023/02/02 12:32:50;;;;;;;9.40;3.30;;;;;;;2.78;100.00;98422.56;271674;1261;22562;-89
2023/02/02 12:39:19;;;;;;;13.50;3.40;;;;;;;2.74;100.00;98425.89;269215;1272;22608;-89
2023/02/02 12:45:49;;;;;;;5.30;2.60;;;;;;;2.73;100.00;98430.84;269505;1273;22553;-89
2023/02/02 12:52:02;;;;;;;6.90;3.50;;;;;;;2.75;100.00;98445.95;269851;1272;22879;-90
2023/02/02 12:58:19;;;;;;;7.10;3.80;;;;;;;2.80;100.00;98461.16;269693;1272;22583;-91
2023/02/02 13:05:03;;;;;;;8.40;4.00;;;;;;;2.83;100.00;98468.75;269086;1273;22285;-90
2023/02/02 13:11:28;;;;;;;11.30;5.40;;;;;;;2.81;100.00;98480.13;268355;1280;22527;-91
2023/02/02 13:17:49;;;;;;;17.30;5.50;;;;;;;2.80;100.00;98498.15;269644;1272;22549;-90
2023/02/02 13:23:59;;;;;;;19.50;7.40;;;;;;;2.77;100.00;98509.55;271194;1272;22323;-91
2023/02/02 13:30:28;;;;;;;13.80;6.70;;;;;;;2.77;100.00;98511.90;272157;1273;22591;-91
2023/02/02 13:36:34;;;;;;;9.50;5.10;;;;;;;2.90;100.00;98519.73;269642;1272;25300;-88
2023/02/02 13:42:48;;;;;;;11.70;5.30;;;;;;;3.02;100.00;98528.34;271469;1272;22224;-91
2023/02/02 13:48:57;;;;;;;11.30;4.50;;;;;;;3.05;100.00;98535.23;272956;1272;23070;-89
2023/02/02 13:55:15;;;;;;;13.00;4.70;;;;;;;2.99;100.00;98542.21;272666;1272;22358;-92
2023/02/02 14:01:18;;;;;;;14.30;5.60;;;;;;;2.92;100.00;98549.45;272637;1272;22533;-91
2023/02/02 14:07:35;;;;;;;14.90;6.50;;;;;;;2.88;100.00;98565.41;272596;1272;22170;-92
2023/02/02 14:20:11;;;;;;;15.30;7.40;;;;;;;2.90;100.00;98579.28;272526;1272;22587;-90
2023/02/02 14:26:18;;;;;;;11.40;6.40;;;;;;;2.91;100.00;98585.74;272073;1272;22392;-91
2023/02/02 14:32:29;;;;;;;11.40;5.70;;;;;;;2.93;100.00;98592.60;271998;1272;22632;-91
2023/02/02 14:38:44;;;;;;;13.60;6.50;;;;;;;2.96;100.00;98607.01;270717;1272;22577;-90
2023/02/02 14:45:15;;;;;;;16.60;7.20;;;;;;;3.00;100.00;98618.36;270638;1272;22243;-91
2023/02/02 14:51:20;;;;;;;10.40;5.90;;;;;;;3.03;100.00;98628.34;271788;1272;23565;-91
2023/02/02 14:57:26;;;;;;;18.10;7.60;;;;;;;3.03;100.00;98638.53;271053;1272;22688;-91
2023/02/02 15:03:47;;;;;;;12.20;6.10;;;;;;;2.99;100.00;98648.30;270952;1272;22547;-90
2023/02/02 15:09:50;;;;;;;12.60;5.70;;;;;;;2.92;100.00;98651.88;271451;1272;22579;-91
2023/02/02 15:16:03;;;;;;;9.80;5.50;;;;;;;2.83;100.00;98664.23;268856;1272;23910;-91
2023/02/02 15:22:23;;;;;;;12.40;5.60;;;;;;;2.77;100.00;98679.17;272450;1272;22334;-91
2023/02/02 15:28:34;;;;;;;12.90;5.90;;;;;;;2.74;100.00;98695.65;269524;1272;25429;-91
2023/02/02 15:34:58;;;;;;;17.00;7.00;;;;;;;2.70;100.00;98713.73;269387;1272;25361;-92
2023/02/02 15:41:27;;;;;;;16.20;6.60;;;;;;;2.67;100.00;98731.63;270327;1272;22584;-90
2023/02/02 15:47:35;;;;;;;17.50;7.80;;;;;;;2.64;100.00;98747.86;270282;1272;23218;-91
2023/02/02 15:53:40;;;;;;;14.10;5.90;;;;;;;2.61;100.00;98765.11;269766;1271;22353;-92
2023/02/02 15:59:42;;;;;;;13.40;7.00;;;;;;;2.59;100.00;98778.95;270210;1270;22685;-91
2023/02/02 16:05:47;;;;;;;13.80;7.30;;;;;;;2.57;100.00;98796.14;270247;1272;22223;-92
2023/02/02 16:11:50;;;;;;;13.30;6.80;;;;;;;2.54;100.00;98814.11;272043;1272;22681;-90
2023/02/02 16:18:04;;;;;;;13.10;5.80;;;;;;;2.50;100.00;98823.73;271130;1272;22222;-90
2023/02/02 16:24:11;;;;;;;12.30;5.20;;;;;;;2.45;100.00;98828.50;270218;1272;22581;-91
2023/02/02 16:30:37;;;;;;;10.90;5.20;;;;;;;2.41;100.00;98837.73;270130;1272;22380;-91
2023/02/02 16:36:39;;;;;;;10.80;5.50;;;;;;;2.38;100.00;98861.09;270711;1272;22570;-91
2023/02/02 16:42:41;;;;;;;11.30;5.10;;;;;;;2.35;100.00;98879.81;270355;1272;22310;-91
2023/02/02 16:48:45;;;;;;;10.80;4.10;;;;;;;2.35;100.00;98888.10;269974;1272;23117;-92
2023/02/02 16:54:51;;;;;;;10.50;4.90;;;;;;;2.34;100.00;98901.05;268647;1265;22643;-90
2023/02/02 17:01:08;;;;;;;9.30;3.70;;;;;;;2.33;100.00;98915.23;269229;1272;22623;-91
2023/02/02 17:07:13;;;;;;;9.60;4.70;;;;;;;2.32;100.00;98930.00;268849;1272;22541;-90
2023/02/02 17:13:36;;;;;;;10.50;4.50;;;;;;;2.31;100.00;98940.05;269138;1271;22555;-90
2023/02/02 17:19:38;;;;;;;10.60;5.00;;;;;;;2.26;100.00;98947.43;271328;1272;22424;-89
2023/02/02 17:25:41;;;;;;;13.60;5.60;;;;;;;2.22;100.00;98955.90;269194;1272;24111;-90
2023/02/02 17:31:44;;;;;;;12.00;4.60;;;;;;;2.13;100.00;98961.50;270142;1271;25507;-88
2023/02/02 17:37:56;;;;;;;12.50;5.90;;;;;;;2.04;100.00;98970.91;269515;1272;10002084;-90
2023/02/02 17:43:58;;;;;;;15.50;7.20;;;;;;;1.96;100.00;98977.25;271708;1268;22297;-91
2023/02/02 17:50:00;;;;;;;17.10;7.90;;;;;;;1.86;100.00;98996.71;272707;1272;22481;-89
2023/02/02 17:56:02;;;;;;;20.40;8.70;;;;;;;1.78;100.00;99005.03;272760;1272;22345;-90
2023/02/02 18:02:04;;;;;;;13.40;5.80;;;;;;;1.73;100.00;99013.64;272645;1272;22372;-91
2023/02/02 18:08:06;;;;;;;11.90;4.80;;;;;;;1.76;100.00;99021.10;272272;1272;22217;-90
2023/02/02 18:14:08;;;;;;;12.20;4.80;;;;;;;1.81;99.94;99029.55;272719;1262;22367;-91
2023/02/02 18:20:12;;;;;;;10.50;4.50;;;;;;;1.84;99.92;99040.14;272590;1272;22274;-91
2023/02/02 18:26:17;;;;;;;10.50;5.40;;;;;;;1.81;99.95;99038.73;272630;1272;22356;-92
2023/02/02 18:32:19;;;;;;;10.60;4.90;;;;;;;1.78;99.63;99053.55;272778;1272;22204;-91
2023/02/02 18:38:24;;;;;;;11.60;4.50;;;;;;;1.75;99.06;99060.98;272676;1272;22290;-92
2023/02/02 18:44:26;;;;;;;11.70;4.70;;;;;;;1.72;98.82;99066.09;272771;1272;22427;-90
2023/02/02 18:50:28;;;;;;;10.80;4.40;;;;;;;1.71;98.14;99079.23;272704;1272;22334;-91
2023/02/02 18:56:30;;;;;;;10.60;4.50;;;;;;;1.71;97.93;99090.70;272667;1272;22385;-90
2023/02/02 19:02:32;;;;;;;9.60;4.40;;;;;;;1.68;97.58;99109.55;272608;1272;22335;-91
2023/02/02 19:08:34;;;;;;;10.30;4.60;;;;;;;1.66;96.86;99124.92;272223;1272;22454;-91
2023/02/02 19:14:37;;;;;;;11.60;3.90;;;;;;;1.62;96.80;99136.89;272332;1272;25281;-91
2023/02/02 19:20:39;;;;;;;9.00;4.00;;;;;;;1.58;96.67;99146.94;270092;1272;23046;-91
2023/02/02 19:26:47;;;;;;;7.30;3.80;;;;;;;1.54;96.21;99155.70;272302;1272;22582;-90
2023/02/02 19:32:49;;;;;;;9.00;3.80;;;;;;;1.51;96.14;99161.23;271280;1271;22569;-91
2023/02/02 19:38:55;;;;;;;9.00;4.70;;;;;;;1.50;95.73;99168.88;271220;1272;22180;-90
2023/02/02 19:44:56;;;;;;;11.50;5.80;;;;;;;1.48;96.04;99178.20;272778;1272;22366;-92
2023/02/02 19:50:59;;;;;;;7.80;3.80;;;;;;;1.45;96.27;99192.78;272886;1272;22365;-92
2023/02/02 19:57:15;;;;;;;12.20;5.20;;;;;;;1.44;96.61;99214.63;272719;1272;22331;-91
2023/02/02 20:03:22;;;;;;;7.30;3.50;;;;;;;1.41;96.77;99222.15;272128;1272;22517;-92
2023/02/02 20:09:23;;;;;;;;;;;;;;;1.36;96.75;99237.95;272658;1272;23825;-90
2023/02/02 20:15:31;;;;;;;12.10;6.40;;;;;;;1.26;97.10;99247.77;272790;1272;160080;-91
2023/02/02 20:21:45;;;;;;;12.40;6.40;;;;;;;1.14;97.82;99255.36;272708;1272;22277;-91
2023/02/02 20:27:48;;;;;;;13.40;6.10;;;;;;;1.04;98.27;99258.18;272480;1272;22565;-92
2023/02/02 20:33:54;;;;;;;15.20;6.70;;;;;;;0.99;98.55;99273.90;270126;1272;23787;-90
2023/02/02 20:40:01;;;;;;;13.70;6.60;;;;;;;0.95;98.73;99281.33;271376;1272;22509;-90
2023/02/02 20:46:03;;;;;;;13.00;6.70;;;;;;;0.92;98.91;99292.18;269853;1272;22548;-91
2023/02/02 20:52:09;;;;;;;16.50;6.20;;;;;;;0.90;99.06;99296.81;271848;1271;22201;-92
2023/02/02 20:58:11;;;;;;;12.20;6.10;;;;;;;0.90;99.02;99304.34;272731;1262;22346;-91
2023/02/02 21:04:13;;;;;;;12.00;5.90;;;;;;;0.93;99.10;99317.73;272285;1272;22327;-92
2023/02/02 21:10:15;;;;;;;12.40;6.30;;;;;;;0.93;98.92;99339.65;271370;1272;25428;-89
2023/02/02 21:16:18;;;;;;;12.10;5.80;;;;;;;0.87;99.13;99357.98;270810;1272;22305;-89
2023/02/02 21:22:19;;;;;;;14.40;6.70;;;;;;;0.78;99.63;99368.05;271434;1272;22526;-90
2023/02/02 21:28:21;;;;;;;13.20;6.60;;;;;;;0.59;99.96;99372.34;269665;1272;25368;-90
2023/02/02 21:34:24;;;;;;;14.30;6.90;;;;;;;0.42;100.00;99379.79;270893;1272;24775;-90
2023/02/02 21:40:29;;;;;;;17.00;7.00;;;;;;;0.33;100.00;99387.89;272903;1272;22355;-90
2023/02/02 21:46:35;;;;;;;12.80;6.70;;;;;;;0.31;100.00;99395.90;271281;1272;24425;-89
2023/02/02 21:52:36;;;;;;;18.80;8.10;;;;;;;0.32;100.00;99395.66;270840;1272;22529;-90
2023/02/02 21:58:38;;;;;;;18.90;8.30;;;;;;;0.34;100.00;99397.62;269882;1271;22580;-90
2023/02/02 22:04:40;;;;;;;19.20;8.70;;;;;;;0.35;100.00;99413.16;269094;1272;25389;-90
2023/02/02 22:10:42;;;;;;;16.60;8.60;;;;;;;0.37;100.00;99427.98;268677;1272;23323;-90
2023/02/02 22:16:47;;;;;;;18.30;8.20;;;;;;;0.39;100.00;99436.63;270450;1272;22222;-90
2023/02/02 22:22:50;;;;;;;16.30;7.40;;;;;;;0.39;100.00;99441.19;271293;1272;22646;-90
2023/02/02 22:28:52;;;;;;;15.40;7.80;;;;;;;0.39;100.00;99441.56;269490;1272;22572;-89
2023/02/02 22:34:54;;;;;;;15.30;8.20;;;;;;;0.39;100.00;99462.31;270207;1272;22261;-90
2023/02/02 22:40:56;;;;;;;19.40;8.30;;;;;;;0.41;100.00;99464.49;272968;1272;23129;-90
2023/02/02 22:46:58;;;;;;;15.30;7.50;;;;;;;0.44;100.00;99466.38;272889;1272;22411;-90
2023/02/02 22:53:07;;;;;;;13.70;7.50;;;;;;;0.46;100.00;99475.12;272393;1272;22892;-90
2023/02/02 22:59:09;;;;;;;14.20;6.50;;;;;;;0.48;100.00;99484.70;270602;1272;22549;-90
2023/02/02 23:05:13;;;;;;;12.80;6.80;;;;;;;0.49;100.00;99489.80;268514;1272;24420;-89
2023/02/02 23:11:15;;;;;;;16.60;7.70;;;;;;;0.49;100.00;99491.48;268504;1272;22751;-90
2023/02/02 23:17:17;;;;;;;13.70;7.10;;;;;;;0.48;100.00;99499.10;269401;1272;23792;-91
2023/02/02 23:23:21;;;;;;;17.00;7.50;;;;;;;0.47;100.00;99501.33;271105;1265;22256;-90
2023/02/02 23:29:22;;;;;;;17.40;8.70;;;;;;;0.46;100.00;99504.84;271123;1272;22559;-89
2023/02/02 23:35:24;;;;;;;25.50;10.60;;;;;;;0.45;100.00;99513.98;269597;1272;22610;-90
2023/02/02 23:41:26;;;;;;;22.10;10.50;;;;;;;0.42;100.00;99515.69;268382;1272;22536;-89
2023/02/02 23:47:28;;;;;;;20.30;11.10;;;;;;;0.39;100.00;99520.54;268894;1272;22269;-89
2023/02/02 23:53:30;;;;;;;20.90;10.50;;;;;;;0.35;100.00;99536.44;272918;1272;22446;-90
2023/02/02 23:59:33;;;;;;;23.50;11.20;;;;;;;0.32;100.00;99545.86;272846;1272;23428;-90
